createdAt,value
2018-06-07T00:00:28.110Z,18.42
2018-06-07T00:01:28.056Z,18.37
2018-06-07T00:02:28.004Z,18.37
2018-06-07T00:03:27.953Z,18.42
2018-06-07T00:04:27.899Z,18.42
2018-06-07T00:05:27.847Z,18.33
2018-06-07T00:06:27.798Z,18.27
2018-06-07T00:07:27.744Z,18.25
2018-06-07T00:08:27.695Z,18.36
2018-06-07T00:09:27.640Z,18.29
2018-06-07T00:10:27.588Z,18.27
2018-06-07T00:11:27.536Z,18.37
2018-06-07T00:12:27.483Z,18.36
2018-06-07T00:13:27.430Z,18.36
2018-06-07T00:14:27.381Z,18.39
2018-06-07T00:15:27.327Z,18.37
2018-06-07T00:16:27.275Z,18.42
2018-06-07T00:17:27.222Z,18.40
2018-06-07T00:18:27.171Z,18.47
2018-06-07T00:19:27.122Z,18.47
2018-06-07T00:20:27.066Z,18.42
2018-06-07T00:21:27.014Z,18.50
2018-06-07T00:22:26.962Z,18.50
2018-06-07T00:23:26.914Z,18.62
2018-06-07T00:24:26.960Z,18.58
2018-06-07T00:25:26.805Z,18.62
2018-06-07T00:26:26.753Z,18.72
2018-06-07T00:27:26.700Z,18.72
2018-06-07T00:28:26.648Z,18.68
2018-06-07T00:29:26.596Z,18.83
2018-06-07T00:30:26.545Z,18.80
2018-06-07T00:31:26.494Z,18.91
2018-06-07T00:32:26.440Z,19.05
2018-06-07T00:33:26.391Z,18.97
2018-06-07T00:34:26.337Z,19.06
2018-06-07T00:35:26.285Z,19.11
2018-06-07T00:36:26.232Z,19.21
2018-06-07T00:37:26.181Z,19.20
2018-06-07T00:38:26.128Z,19.29
2018-06-07T00:39:26.077Z,19.32
2018-06-07T00:40:26.025Z,19.29
2018-06-07T00:41:25.978Z,19.18
2018-06-07T00:42:25.923Z,19.15
2018-06-07T00:43:25.962Z,19.02
2018-06-07T00:44:25.816Z,18.87
2018-06-07T00:45:25.767Z,18.87
2018-06-07T00:46:25.750Z,18.76
2018-06-07T00:47:25.662Z,18.77
2018-06-07T00:48:25.610Z,18.80
2018-06-07T00:49:25.557Z,18.77
2018-06-07T00:50:25.505Z,18.82
2018-06-07T00:51:25.454Z,18.83
2018-06-07T00:52:25.398Z,18.83
2018-06-07T00:53:25.347Z,18.90
2018-06-07T00:54:25.301Z,18.84
2018-06-07T00:55:25.244Z,18.95
2018-06-07T00:56:25.192Z,19.06
2018-06-07T00:57:25.142Z,19.01
2018-06-07T00:58:25.087Z,19.01
2018-06-07T00:59:25.035Z,19.15
2018-06-07T01:00:24.984Z,19.13
2018-06-07T01:01:24.935Z,19.21
2018-06-07T01:02:24.878Z,19.21
2018-06-07T01:03:24.827Z,19.36
2018-06-07T01:04:24.776Z,19.35
2018-06-07T01:05:24.723Z,19.23
2018-06-07T01:06:24.674Z,19.23
2018-06-07T01:07:24.620Z,19.25
2018-06-07T01:08:24.568Z,19.29
2018-06-07T01:09:24.523Z,19.25
2018-06-07T01:10:24.466Z,19.25
2018-06-07T01:11:24.412Z,19.24
2018-06-07T01:12:24.363Z,19.24
2018-06-07T01:13:24.311Z,19.24
2018-06-07T01:14:24.258Z,19.32
2018-06-07T01:15:24.205Z,19.32
2018-06-07T01:16:24.153Z,19.38
2018-06-07T01:17:24.100Z,19.38
2018-06-07T01:18:24.050Z,19.28
2018-06-07T01:19:23.996Z,19.35
2018-06-07T01:20:23.945Z,19.23
2018-06-07T01:21:23.895Z,19.24
2018-06-07T01:22:23.843Z,19.25
2018-06-07T01:23:23.790Z,19.20
2018-06-07T01:24:23.737Z,19.20
2018-06-07T01:25:23.684Z,19.17
2018-06-07T01:26:23.633Z,19.15
2018-06-07T01:27:23.787Z,19.11
2018-06-07T01:28:23.531Z,19.13
2018-06-07T01:29:23.479Z,19.14
2018-06-07T01:30:23.425Z,19.17
2018-06-07T01:31:23.374Z,19.11
2018-06-07T01:32:23.320Z,19.17
2018-06-07T01:33:23.318Z,19.18
2018-06-07T01:34:23.217Z,19.20
2018-06-07T01:35:23.166Z,19.02
2018-06-07T01:36:23.113Z,19.18
2018-06-07T01:37:23.062Z,19.02
2018-06-07T01:38:23.009Z,19.06
2018-06-07T01:39:22.963Z,19.05
2018-06-07T01:40:22.911Z,19.10
2018-06-07T01:41:22.853Z,19.10
2018-06-07T01:42:22.801Z,19.17
2018-06-07T01:43:22.751Z,19.06
2018-06-07T01:44:22.698Z,19.15
2018-06-07T01:45:22.644Z,19.01
2018-06-07T01:46:22.594Z,18.92
2018-06-07T01:47:22.543Z,18.83
2018-06-07T01:48:22.498Z,18.94
2018-06-07T01:49:22.439Z,18.98
2018-06-07T01:50:22.439Z,18.91
2018-06-07T01:51:22.334Z,18.94
2018-06-07T01:52:22.280Z,18.94
2018-06-07T01:53:22.230Z,18.84
2018-06-07T01:54:22.177Z,18.90
2018-06-07T01:55:22.131Z,18.95
2018-06-07T01:56:22.074Z,18.99
2018-06-07T01:57:22.020Z,19.11
2018-06-07T01:58:21.973Z,19.02
2018-06-07T01:59:21.919Z,19.02
2018-06-07T02:00:21.865Z,19.05
2018-06-07T02:01:21.813Z,19.02
2018-06-07T02:02:21.761Z,19.02
2018-06-07T02:03:21.710Z,18.98
2018-06-07T02:04:21.659Z,19.06
2018-06-07T02:05:21.608Z,19.08
2018-06-07T02:06:21.559Z,19.01
2018-06-07T02:07:21.502Z,18.98
2018-06-07T02:08:21.449Z,18.90
2018-06-07T02:09:21.402Z,18.95
2018-06-07T02:10:21.348Z,18.92
2018-06-07T02:11:21.297Z,18.87
2018-06-07T02:12:21.245Z,18.87
2018-06-07T02:13:21.192Z,18.86
2018-06-07T02:14:21.140Z,18.83
2018-06-07T02:15:21.089Z,18.80
2018-06-07T02:16:21.037Z,18.76
2018-06-07T02:17:20.986Z,18.76
2018-06-07T02:18:20.934Z,18.82
2018-06-07T02:19:20.881Z,18.74
2018-06-07T02:20:20.827Z,18.76
2018-06-07T02:21:20.779Z,18.74
2018-06-07T02:22:20.724Z,18.74
2018-06-07T02:23:20.672Z,18.67
2018-06-07T02:24:20.620Z,18.74
2018-06-07T02:25:20.570Z,18.70
2018-06-07T02:26:20.516Z,18.79
2018-06-07T02:27:20.465Z,18.79
2018-06-07T02:28:20.413Z,18.77
2018-06-07T02:29:20.361Z,18.70
2018-06-07T02:30:20.317Z,18.82
2018-06-07T02:31:20.256Z,18.76
2018-06-07T02:32:20.211Z,18.77
2018-06-07T02:33:20.152Z,18.82
2018-06-07T02:34:20.104Z,18.80
2018-06-07T02:35:20.051Z,18.84
2018-06-07T02:36:19.996Z,18.97
2018-06-07T02:37:19.944Z,18.94
2018-06-07T02:38:19.894Z,18.97
2018-06-07T02:39:19.840Z,18.83
2018-06-07T02:40:19.788Z,18.95
2018-06-07T02:41:19.736Z,18.86
2018-06-07T02:42:19.686Z,18.95
2018-06-07T02:43:19.638Z,18.97
2018-06-07T02:44:19.585Z,18.95
2018-06-07T02:45:19.528Z,18.97
2018-06-07T02:46:19.477Z,18.98
2018-06-07T02:47:19.425Z,18.92
2018-06-07T02:48:19.371Z,18.91
2018-06-07T02:49:19.323Z,18.87
2018-06-07T02:50:19.269Z,18.92
2018-06-07T02:51:19.217Z,18.95
2018-06-07T02:52:19.164Z,18.92
2018-06-07T02:53:19.113Z,18.84
2018-06-07T02:54:19.058Z,18.86
2018-06-07T02:55:19.008Z,18.90
2018-06-07T02:56:18.955Z,18.91
2018-06-07T02:57:18.906Z,18.87
2018-06-07T02:58:18.852Z,18.92
2018-06-07T02:59:18.800Z,18.97
2018-06-07T03:00:18.752Z,18.83
2018-06-07T03:01:18.702Z,18.98
2018-06-07T03:02:18.646Z,18.94
2018-06-07T03:03:18.594Z,19.06
2018-06-07T03:04:18.544Z,18.97
2018-06-07T03:05:18.490Z,18.84
2018-06-07T03:06:18.437Z,18.80
2018-06-07T03:07:18.385Z,18.80
2018-06-07T03:08:18.333Z,18.83
2018-06-07T03:09:18.283Z,18.84
2018-06-07T03:10:18.231Z,18.80
2018-06-07T03:11:18.179Z,18.77
2018-06-07T03:12:18.125Z,18.86
2018-06-07T03:13:18.072Z,18.83
2018-06-07T03:14:18.022Z,18.86
2018-06-07T03:15:17.970Z,18.80
2018-06-07T03:16:17.919Z,18.86
2018-06-07T03:17:17.866Z,18.82
2018-06-07T03:18:17.814Z,18.79
2018-06-07T03:19:17.761Z,18.86
2018-06-07T03:20:17.712Z,18.83
2018-06-07T03:21:17.657Z,18.87
2018-06-07T03:22:17.606Z,18.82
2018-06-07T03:23:17.554Z,18.79
2018-06-07T03:24:17.502Z,18.76
2018-06-07T03:25:17.451Z,18.83
2018-06-07T03:26:17.399Z,18.82
2018-06-07T03:27:17.346Z,18.80
2018-06-07T03:28:17.295Z,18.83
2018-06-07T03:29:17.246Z,18.79
2018-06-07T03:30:17.192Z,18.80
2018-06-07T03:31:17.141Z,18.73
2018-06-07T03:32:17.087Z,18.68
2018-06-07T03:33:17.033Z,18.74
2018-06-07T03:34:16.986Z,18.74
2018-06-07T03:35:16.931Z,18.58
2018-06-07T03:36:16.878Z,18.61
2018-06-07T03:37:16.827Z,18.52
2018-06-07T03:38:16.774Z,18.54
2018-06-07T03:39:16.722Z,18.46
2018-06-07T03:40:16.668Z,18.44
2018-06-07T03:41:16.619Z,18.49
2018-06-07T03:42:16.565Z,18.44
2018-06-07T03:43:16.514Z,18.43
2018-06-07T03:44:16.463Z,18.40
2018-06-07T03:45:16.409Z,18.40
2018-06-07T03:46:16.357Z,18.42
2018-06-07T03:47:16.306Z,18.34
2018-06-07T03:48:16.253Z,18.34
2018-06-07T03:49:16.201Z,18.28
2018-06-07T03:50:16.148Z,18.31
2018-06-07T03:51:16.097Z,18.33
2018-06-07T03:52:16.044Z,18.34
2018-06-07T03:53:15.992Z,18.42
2018-06-07T03:54:15.939Z,18.43
2018-06-07T03:55:15.908Z,18.46
2018-06-07T03:56:15.835Z,18.46
2018-06-07T03:57:15.784Z,18.44
2018-06-07T03:58:15.731Z,18.42
2018-06-07T03:59:15.678Z,18.44
2018-06-07T04:00:15.624Z,18.43
2018-06-07T04:01:15.572Z,18.44
2018-06-07T04:02:15.523Z,18.42
2018-06-07T04:03:15.470Z,18.47
2018-06-07T04:04:15.416Z,18.50
2018-06-07T04:05:15.368Z,18.42
2018-06-07T04:06:15.335Z,18.55
2018-06-07T04:07:15.260Z,18.55
2018-06-07T04:08:15.208Z,18.57
2018-06-07T04:09:15.155Z,18.57
2018-06-07T04:10:15.111Z,18.62
2018-06-07T04:11:15.055Z,18.76
2018-06-07T04:12:14.997Z,18.77
2018-06-07T04:13:14.948Z,18.72
2018-06-07T04:14:14.895Z,18.79
2018-06-07T04:15:14.843Z,18.74
2018-06-07T04:16:14.792Z,18.83
2018-06-07T04:17:14.737Z,18.70
2018-06-07T04:18:14.690Z,18.70
2018-06-07T04:19:14.639Z,18.73
2018-06-07T04:20:14.582Z,18.80
2018-06-07T04:21:14.529Z,18.90
2018-06-07T04:22:14.481Z,18.84
2018-06-07T04:23:14.492Z,18.84
2018-06-07T04:24:14.373Z,18.92
2018-06-07T04:25:14.321Z,18.91
2018-06-07T04:26:14.271Z,19.05
2018-06-07T04:27:14.225Z,19.06
2018-06-07T04:28:14.166Z,19.02
2018-06-07T04:29:14.115Z,19.06
2018-06-07T04:30:14.062Z,19.11
2018-06-07T04:31:14.012Z,19.17
2018-06-07T04:32:13.962Z,19.21
2018-06-07T04:33:13.909Z,19.21
2018-06-07T04:34:13.858Z,19.20
2018-06-07T04:35:13.803Z,19.21
2018-06-07T04:36:13.752Z,19.13
2018-06-07T04:37:13.699Z,19.10
2018-06-07T04:38:13.650Z,19.15
2018-06-07T04:39:13.598Z,19.20
2018-06-07T04:40:13.545Z,19.21
2018-06-07T04:41:13.492Z,19.15
2018-06-07T04:42:13.493Z,19.24
2018-06-07T04:43:13.390Z,19.23
2018-06-07T04:44:13.336Z,19.20
2018-06-07T04:45:13.286Z,19.25
2018-06-07T04:46:13.240Z,19.24
2018-06-07T04:47:13.182Z,19.24
2018-06-07T04:48:13.134Z,19.24
2018-06-07T04:49:13.087Z,19.28
2018-06-07T04:50:13.028Z,19.33
2018-06-07T04:51:12.976Z,19.39
2018-06-07T04:52:12.925Z,19.28
2018-06-07T04:53:12.878Z,19.40
2018-06-07T04:54:12.820Z,19.38
2018-06-07T04:55:12.770Z,19.51
2018-06-07T04:56:12.718Z,19.43
2018-06-07T04:57:12.667Z,19.53
2018-06-07T04:58:12.616Z,19.48
2018-06-07T04:59:12.564Z,19.51
2018-06-07T05:00:12.514Z,19.58
2018-06-07T05:01:12.474Z,19.57
2018-06-07T05:02:12.415Z,19.69
2018-06-07T05:03:12.358Z,19.68
2018-06-07T05:04:12.307Z,19.73
2018-06-07T05:05:12.254Z,19.69
2018-06-07T05:06:12.203Z,19.73
2018-06-07T05:07:12.153Z,19.80
2018-06-07T05:08:12.100Z,19.87
2018-06-07T05:09:12.048Z,19.91
2018-06-07T05:10:11.996Z,19.90
2018-06-07T05:11:11.945Z,19.97
2018-06-07T05:12:11.894Z,20.06
2018-06-07T05:13:11.846Z,20.03
2018-06-07T05:14:11.867Z,20.10
2018-06-07T05:15:11.742Z,20.16
2018-06-07T05:16:11.689Z,20.24
2018-06-07T05:17:11.641Z,20.27
2018-06-07T05:18:11.587Z,20.27
2018-06-07T05:19:11.536Z,20.41
2018-06-07T05:20:11.484Z,20.38
2018-06-07T05:21:11.434Z,20.49
2018-06-07T05:22:11.384Z,20.50
2018-06-07T05:23:11.331Z,20.47
2018-06-07T05:24:11.280Z,20.54
2018-06-07T05:25:11.229Z,20.54
2018-06-07T05:26:11.183Z,20.68
2018-06-07T05:27:11.127Z,20.62
2018-06-07T05:28:11.076Z,20.71
2018-06-07T05:29:11.025Z,20.65
2018-06-07T05:30:10.974Z,20.69
2018-06-07T05:31:10.924Z,20.81
2018-06-07T05:32:10.874Z,20.80
2018-06-07T05:33:10.821Z,20.86
2018-06-07T05:34:10.773Z,20.91
2018-06-07T05:35:10.720Z,20.91
2018-06-07T05:36:10.669Z,20.83
2018-06-07T05:37:10.625Z,20.89
2018-06-07T05:38:10.568Z,20.89
2018-06-07T05:39:10.520Z,20.83
2018-06-07T05:40:10.512Z,20.84
2018-06-07T05:41:10.417Z,20.84
2018-06-07T05:42:10.366Z,20.91
2018-06-07T05:43:10.316Z,20.98
2018-06-07T05:44:10.263Z,21.02
2018-06-07T05:45:10.213Z,21.05
2018-06-07T05:46:10.164Z,21.01
2018-06-07T05:47:10.114Z,20.99
2018-06-07T05:48:10.062Z,21.06
2018-06-07T05:49:10.012Z,21.02
2018-06-07T05:50:09.961Z,20.99
2018-06-07T05:51:09.911Z,21.01
2018-06-07T05:52:09.859Z,20.98
2018-06-07T05:53:09.808Z,20.95
2018-06-07T05:54:09.759Z,21.01
2018-06-07T05:55:09.710Z,21.08
2018-06-07T05:56:09.669Z,21.05
2018-06-07T05:57:09.607Z,21.11
2018-06-07T05:58:09.556Z,21.02
2018-06-07T05:59:09.506Z,21.06
2018-06-07T06:00:09.455Z,21.13
2018-06-07T06:01:09.405Z,21.16
2018-06-07T06:02:09.357Z,21.17
2018-06-07T06:03:09.314Z,21.24
2018-06-07T06:04:09.253Z,21.23
2018-06-07T06:05:09.205Z,21.38
2018-06-07T06:06:09.186Z,21.36
2018-06-07T06:07:09.126Z,21.35
2018-06-07T06:08:09.051Z,21.36
2018-06-07T06:09:09.003Z,21.21
2018-06-07T06:10:08.953Z,21.16
2018-06-07T06:11:08.901Z,21.20
2018-06-07T06:12:08.889Z,21.26
2018-06-07T06:13:08.806Z,21.21
2018-06-07T06:14:08.751Z,21.30
2018-06-07T06:15:08.700Z,21.34
2018-06-07T06:16:08.651Z,21.44
2018-06-07T06:17:08.599Z,21.44
2018-06-07T06:18:08.550Z,21.42
2018-06-07T06:19:08.499Z,21.48
2018-06-07T06:20:08.453Z,21.42
2018-06-07T06:21:08.401Z,21.39
2018-06-07T06:22:08.348Z,21.45
2018-06-07T06:23:08.299Z,21.35
2018-06-07T06:24:08.248Z,21.38
2018-06-07T06:25:08.199Z,21.41
2018-06-07T06:26:08.149Z,21.27
2018-06-07T06:27:08.099Z,21.45
2018-06-07T06:28:08.048Z,21.44
2018-06-07T06:29:07.998Z,21.41
2018-06-07T06:30:07.952Z,21.42
2018-06-07T06:31:07.899Z,21.42
2018-06-07T06:32:07.849Z,21.53
2018-06-07T06:33:07.798Z,21.59
2018-06-07T06:34:07.747Z,21.59
2018-06-07T06:35:07.698Z,21.46
2018-06-07T06:36:07.653Z,21.45
2018-06-07T06:37:07.599Z,21.41
2018-06-07T06:38:07.549Z,21.36
2018-06-07T06:39:07.551Z,21.44
2018-06-07T06:40:07.447Z,21.46
2018-06-07T06:41:07.397Z,21.46
2018-06-07T06:42:07.348Z,21.39
2018-06-07T06:43:07.297Z,21.46
2018-06-07T06:44:07.248Z,21.57
2018-06-07T06:45:07.201Z,21.56
2018-06-07T06:46:07.148Z,21.64
2018-06-07T06:47:07.097Z,21.61
2018-06-07T06:48:07.048Z,21.72
2018-06-07T06:49:07.046Z,21.81
2018-06-07T06:50:06.948Z,21.83
2018-06-07T06:51:06.899Z,21.78
2018-06-07T06:52:06.847Z,21.91
2018-06-07T06:53:06.798Z,21.83
2018-06-07T06:54:06.750Z,21.83
2018-06-07T06:55:06.701Z,21.91
2018-06-07T06:56:06.648Z,21.88
2018-06-07T06:57:06.647Z,21.85
2018-06-07T06:58:06.551Z,21.90
2018-06-07T06:59:06.499Z,21.94
2018-06-07T07:00:06.448Z,22.09
2018-06-07T07:01:06.399Z,22.22
2018-06-07T07:02:06.349Z,22.27
2018-06-07T07:03:06.300Z,22.28
2018-06-07T07:04:06.249Z,22.38
2018-06-07T07:05:06.198Z,22.34
2018-06-07T07:06:06.149Z,22.37
2018-06-07T07:07:06.106Z,22.44
2018-06-07T07:08:06.050Z,22.54
2018-06-07T07:09:06.127Z,22.54
2018-06-07T07:10:05.952Z,22.62
2018-06-07T07:11:05.902Z,22.64
2018-06-07T07:12:05.850Z,22.64
2018-06-07T07:13:05.803Z,22.71
2018-06-07T07:14:05.753Z,22.69
2018-06-07T07:15:05.704Z,22.53
2018-06-07T07:16:05.653Z,22.53
2018-06-07T07:17:05.605Z,22.57
2018-06-07T07:18:05.554Z,22.62
2018-06-07T07:19:05.507Z,22.64
2018-06-07T07:20:05.459Z,22.60
2018-06-07T07:21:05.405Z,22.74
2018-06-07T07:22:05.358Z,22.80
2018-06-07T07:23:05.308Z,22.84
2018-06-07T07:24:05.258Z,22.75
2018-06-07T07:25:05.209Z,22.89
2018-06-07T07:26:05.160Z,22.80
2018-06-07T07:27:05.111Z,22.71
2018-06-07T07:28:05.069Z,22.82
2018-06-07T07:29:05.015Z,22.97
2018-06-07T07:30:04.963Z,23.09
2018-06-07T07:31:04.914Z,23.05
2018-06-07T07:32:04.863Z,23.07
2018-06-07T07:33:04.816Z,23.12
2018-06-07T07:34:04.773Z,23.23
2018-06-07T07:35:04.718Z,23.35
2018-06-07T07:36:04.670Z,23.38
2018-06-07T07:37:04.618Z,23.24
2018-06-07T07:38:04.570Z,23.26
2018-06-07T07:39:04.521Z,23.15
2018-06-07T07:40:04.473Z,23.15
2018-06-07T07:41:04.424Z,23.23
2018-06-07T07:42:04.374Z,23.35
2018-06-07T07:43:04.325Z,23.34
2018-06-07T07:44:04.275Z,23.38
2018-06-07T07:45:04.230Z,23.38
2018-06-07T07:46:04.180Z,23.35
2018-06-07T07:47:04.127Z,23.52
2018-06-07T07:48:04.078Z,23.58
2018-06-07T07:49:04.031Z,23.62
2018-06-07T07:50:03.980Z,23.62
2018-06-07T07:51:03.933Z,23.65
2018-06-07T07:52:03.883Z,23.57
2018-06-07T07:53:03.836Z,23.61
2018-06-07T07:54:03.786Z,23.68
2018-06-07T07:55:03.739Z,23.77
2018-06-07T07:56:03.693Z,23.77
2018-06-07T07:57:03.642Z,23.89
2018-06-07T07:58:03.598Z,23.87
2018-06-07T07:59:03.545Z,23.76
2018-06-07T08:00:03.498Z,23.61
2018-06-07T08:01:03.449Z,23.68
2018-06-07T08:02:03.402Z,23.83
2018-06-07T08:03:03.355Z,23.85
2018-06-07T08:04:03.304Z,23.92
2018-06-07T08:05:03.254Z,23.92
2018-06-07T08:06:03.207Z,24.13
2018-06-07T08:07:03.160Z,24.27
2018-06-07T08:08:03.109Z,24.41
2018-06-07T08:09:03.060Z,24.31
2018-06-07T08:10:03.043Z,24.14
2018-06-07T08:11:02.968Z,24.20
2018-06-07T08:12:02.914Z,24.31
2018-06-07T08:13:02.867Z,24.37
2018-06-07T08:14:02.821Z,24.39
2018-06-07T08:15:02.773Z,24.31
2018-06-07T08:16:02.726Z,24.32
2018-06-07T08:17:02.674Z,24.22
2018-06-07T08:18:02.628Z,24.08
2018-06-07T08:19:02.579Z,23.97
2018-06-07T08:20:02.531Z,24.01
2018-06-07T08:21:02.483Z,24.02
2018-06-07T08:22:02.436Z,23.92
2018-06-07T08:23:02.389Z,23.90
2018-06-07T08:24:02.341Z,23.94
2018-06-07T08:25:02.292Z,23.94
2018-06-07T08:26:02.246Z,23.95
2018-06-07T08:27:02.198Z,23.80
2018-06-07T08:28:02.147Z,23.85
2018-06-07T08:29:02.099Z,23.83
2018-06-07T08:30:02.053Z,23.87
2018-06-07T08:31:02.006Z,23.82
2018-06-07T08:32:01.955Z,24.00
2018-06-07T08:33:01.908Z,23.98
2018-06-07T08:34:01.861Z,23.87
2018-06-07T08:35:01.813Z,23.77
2018-06-07T08:36:01.768Z,23.76
2018-06-07T08:37:01.716Z,23.80
2018-06-07T08:38:01.670Z,23.72
2018-06-07T08:39:01.628Z,23.58
2018-06-07T08:40:01.573Z,23.58
2018-06-07T08:41:01.524Z,23.64
2018-06-07T08:42:01.486Z,23.62
2018-06-07T08:43:01.427Z,23.75
2018-06-07T08:44:01.378Z,23.72
2018-06-07T08:45:01.336Z,23.68
2018-06-07T08:46:01.283Z,23.76
2018-06-07T08:47:01.236Z,23.64
2018-06-07T08:48:01.196Z,23.60
2018-06-07T08:49:01.142Z,23.68
2018-06-07T08:50:01.090Z,23.67
2018-06-07T08:51:01.048Z,23.61
2018-06-07T08:52:00.992Z,23.85
2018-06-07T08:53:00.946Z,23.95
2018-06-07T08:54:00.897Z,24.04
2018-06-07T08:55:00.849Z,24.07
2018-06-07T08:56:00.799Z,24.05
2018-06-07T08:57:00.753Z,24.12
2018-06-07T08:58:00.706Z,24.04
2018-06-07T08:59:00.750Z,24.12
2018-06-07T09:00:00.607Z,24.10
2018-06-07T09:01:00.560Z,24.34
2018-06-07T09:02:00.512Z,24.41
2018-06-07T09:03:00.467Z,24.41
2018-06-07T09:04:00.416Z,24.37
2018-06-07T09:05:00.371Z,24.35
2018-06-07T09:06:00.320Z,24.50
2018-06-07T09:07:00.280Z,24.63
2018-06-07T09:08:00.225Z,24.61
2018-06-07T09:09:00.177Z,24.59
2018-06-07T09:10:00.131Z,24.60
2018-06-07T09:11:00.082Z,24.41
2018-06-07T09:12:00.037Z,24.26
2018-06-07T09:12:59.984Z,24.22
2018-06-07T09:13:59.937Z,24.05
2018-06-07T09:14:59.890Z,24.23
2018-06-07T09:15:59.842Z,24.31
2018-06-07T09:16:59.794Z,24.39
2018-06-07T09:17:59.747Z,24.41
2018-06-07T09:18:59.705Z,24.27
2018-06-07T09:19:59.654Z,24.31
2018-06-07T09:20:59.604Z,24.27
2018-06-07T09:21:59.556Z,24.41
2018-06-07T09:22:59.507Z,24.31
2018-06-07T09:23:59.461Z,24.23
2018-06-07T09:24:59.411Z,24.24
2018-06-07T09:25:59.383Z,24.26
2018-06-07T09:26:59.321Z,24.38
2018-06-07T09:27:59.271Z,24.42
2018-06-07T09:28:59.220Z,24.57
2018-06-07T09:29:59.173Z,24.49
2018-06-07T09:30:59.126Z,24.39
2018-06-07T09:31:59.076Z,24.38
2018-06-07T09:32:59.031Z,24.34
2018-06-07T09:33:58.984Z,24.38
2018-06-07T09:34:58.936Z,24.47
2018-06-07T09:35:58.886Z,24.44
2018-06-07T09:36:58.840Z,24.37
2018-06-07T09:37:58.790Z,24.35
2018-06-07T09:38:58.747Z,24.39
2018-06-07T09:39:58.696Z,24.41
2018-06-07T09:40:58.647Z,24.42
2018-06-07T09:41:58.599Z,24.38
2018-06-07T09:42:58.553Z,24.41
2018-06-07T09:43:58.505Z,24.42
2018-06-07T09:44:58.459Z,24.47
2018-06-07T09:45:58.411Z,24.42
2018-06-07T09:46:58.378Z,24.41
2018-06-07T09:47:58.313Z,24.39
2018-06-07T09:48:58.266Z,24.39
2018-06-07T09:49:58.316Z,24.50
2018-06-07T09:50:58.172Z,24.56
2018-06-07T09:51:58.122Z,24.64
2018-06-07T09:52:58.090Z,24.77
2018-06-07T09:53:58.030Z,24.90
2018-06-07T09:54:57.985Z,24.88
2018-06-07T09:55:57.932Z,24.85
2018-06-07T09:56:57.885Z,24.82
2018-06-07T09:57:57.838Z,24.64
2018-06-07T09:58:57.794Z,24.85
2018-06-07T09:59:57.743Z,24.91
2018-06-07T10:00:57.697Z,24.91
2018-06-07T10:01:57.650Z,24.90
2018-06-07T10:02:57.602Z,24.75
2018-06-07T10:03:57.555Z,24.88
2018-06-07T10:04:57.505Z,24.85
2018-06-07T10:05:57.459Z,24.88
2018-06-07T10:06:57.412Z,24.90
2018-06-07T10:07:57.363Z,25.02
2018-06-07T10:08:57.318Z,25.17
2018-06-07T10:09:57.269Z,25.19
2018-06-07T10:10:57.222Z,25.09
2018-06-07T10:11:57.176Z,25.13
2018-06-07T10:12:57.128Z,25.07
2018-06-07T10:13:57.082Z,25.05
2018-06-07T10:14:57.036Z,25.05
2018-06-07T10:15:56.990Z,24.94
2018-06-07T10:16:56.991Z,24.76
2018-06-07T10:17:56.892Z,24.77
2018-06-07T10:18:56.845Z,24.68
2018-06-07T10:19:56.797Z,24.68
2018-06-07T10:20:56.752Z,24.69
2018-06-07T10:21:56.704Z,24.68
2018-06-07T10:22:56.656Z,24.76
2018-06-07T10:23:56.707Z,24.85
2018-06-07T10:24:56.561Z,24.85
2018-06-07T10:25:56.514Z,24.95
2018-06-07T10:26:56.469Z,24.90
2018-06-07T10:27:56.417Z,24.91
2018-06-07T10:28:56.372Z,25.09
2018-06-07T10:29:56.324Z,25.17
2018-06-07T10:30:56.278Z,25.19
2018-06-07T10:31:56.229Z,25.16
2018-06-07T10:32:56.182Z,25.28
2018-06-07T10:33:56.138Z,25.43
2018-06-07T10:34:56.092Z,25.50
2018-06-07T10:35:56.041Z,25.34
2018-06-07T10:36:55.995Z,25.30
2018-06-07T10:37:55.947Z,25.19
2018-06-07T10:38:55.903Z,24.97
2018-06-07T10:39:55.852Z,24.88
2018-06-07T10:40:55.806Z,24.83
2018-06-07T10:41:55.760Z,24.83
2018-06-07T10:42:55.711Z,24.79
2018-06-07T10:43:55.664Z,24.75
2018-06-07T10:44:55.617Z,24.82
2018-06-07T10:45:55.569Z,24.80
2018-06-07T10:46:55.525Z,24.76
2018-06-07T10:47:55.474Z,24.85
2018-06-07T10:48:55.427Z,24.88
2018-06-07T10:49:55.392Z,24.90
2018-06-07T10:50:55.336Z,24.75
2018-06-07T10:51:55.286Z,24.87
2018-06-07T10:52:55.240Z,24.83
2018-06-07T10:53:55.274Z,24.92
2018-06-07T10:54:55.146Z,24.92
2018-06-07T10:55:55.095Z,24.90
2018-06-07T10:56:55.047Z,25.01
2018-06-07T10:57:55.004Z,25.06
2018-06-07T10:58:54.977Z,24.90
2018-06-07T10:59:54.906Z,24.95
2018-06-07T11:00:54.860Z,25.05
2018-06-07T11:01:54.815Z,24.97
2018-06-07T11:02:54.765Z,25.05
2018-06-07T11:03:54.718Z,24.97
2018-06-07T11:04:54.671Z,25.10
2018-06-07T11:05:54.624Z,25.13
2018-06-07T11:06:54.577Z,25.16
2018-06-07T11:07:54.530Z,25.13
2018-06-07T11:08:54.485Z,25.19
2018-06-07T11:09:54.437Z,25.37
2018-06-07T11:10:54.388Z,25.27
2018-06-07T11:11:54.342Z,25.37
2018-06-07T11:12:54.294Z,25.30
2018-06-07T11:13:54.250Z,25.35
2018-06-07T11:14:54.200Z,25.16
2018-06-07T11:15:54.151Z,24.97
2018-06-07T11:16:54.107Z,24.90
2018-06-07T11:17:54.059Z,24.95
2018-06-07T11:18:54.010Z,25.07
2018-06-07T11:19:53.961Z,25.20
2018-06-07T11:20:53.915Z,25.16
2018-06-07T11:21:53.868Z,25.20
2018-06-07T11:22:53.822Z,25.19
2018-06-07T11:23:53.830Z,25.17
2018-06-07T11:24:53.731Z,25.19
2018-06-07T11:25:53.680Z,25.17
2018-06-07T11:26:53.632Z,25.30
2018-06-07T11:27:53.583Z,25.30
2018-06-07T11:28:53.536Z,25.35
2018-06-07T11:29:53.488Z,25.32
2018-06-07T11:30:53.442Z,25.35
2018-06-07T11:31:53.393Z,25.24
2018-06-07T11:32:53.349Z,25.16
2018-06-07T11:33:53.300Z,25.24
2018-06-07T11:34:53.253Z,25.22
2018-06-07T11:35:53.206Z,25.10
2018-06-07T11:36:53.157Z,25.07
2018-06-07T11:37:53.112Z,25.16
2018-06-07T11:38:53.063Z,25.31
2018-06-07T11:39:53.016Z,25.44
2018-06-07T11:40:53.014Z,25.57
2018-06-07T11:41:52.921Z,25.44
2018-06-07T11:42:52.876Z,25.46
2018-06-07T11:43:52.826Z,25.64
2018-06-07T11:44:52.778Z,25.61
2018-06-07T11:45:52.733Z,25.53
2018-06-07T11:46:52.687Z,25.44
2018-06-07T11:47:52.637Z,25.38
2018-06-07T11:48:52.614Z,25.37
2018-06-07T11:49:52.546Z,25.31
2018-06-07T11:50:52.498Z,25.47
2018-06-07T11:51:52.449Z,25.46
2018-06-07T11:52:52.404Z,25.47
2018-06-07T11:53:52.357Z,25.61
2018-06-07T11:54:52.356Z,25.64
2018-06-07T11:55:52.262Z,25.50
2018-06-07T11:56:52.215Z,25.67
2018-06-07T11:57:52.167Z,25.56
2018-06-07T11:58:52.121Z,25.50
2018-06-07T11:59:52.072Z,25.49
2018-06-07T12:00:52.026Z,25.32
2018-06-07T12:01:51.979Z,25.32
2018-06-07T12:02:51.939Z,25.46
2018-06-07T12:03:51.885Z,25.44
2018-06-07T12:04:51.842Z,25.44
2018-06-07T12:05:51.790Z,25.46
2018-06-07T12:06:51.744Z,25.44
2018-06-07T12:07:51.696Z,25.46
2018-06-07T12:08:51.650Z,25.49
2018-06-07T12:09:51.604Z,25.67
2018-06-07T12:10:51.557Z,25.67
2018-06-07T12:11:51.509Z,25.82
2018-06-07T12:12:51.463Z,25.90
2018-06-07T12:13:51.417Z,25.99
2018-06-07T12:14:51.368Z,26.21
2018-06-07T12:15:51.321Z,26.20
2018-06-07T12:16:51.275Z,26.20
2018-06-07T12:17:51.229Z,26.28
2018-06-07T12:18:51.183Z,26.50
2018-06-07T12:19:51.136Z,26.76
2018-06-07T12:20:51.090Z,26.89
2018-06-07T12:21:51.042Z,26.95
2018-06-07T12:22:50.998Z,26.92
2018-06-07T12:23:50.951Z,26.98
2018-06-07T12:24:50.904Z,26.89
2018-06-07T12:25:50.857Z,26.89
2018-06-07T12:26:50.812Z,26.91
2018-06-07T12:27:50.766Z,26.74
2018-06-07T12:28:50.722Z,26.72
2018-06-07T12:29:50.674Z,26.73
2018-06-07T12:30:50.628Z,26.89
2018-06-07T12:31:50.581Z,26.77
2018-06-07T12:32:50.536Z,26.76
2018-06-07T12:33:50.491Z,26.79
2018-06-07T12:34:50.444Z,26.65
2018-06-07T12:35:50.988Z,26.80
2018-06-07T12:36:50.458Z,26.69
2018-06-07T12:37:50.305Z,26.76
2018-06-07T12:38:50.262Z,26.77
2018-06-07T12:39:50.285Z,26.65
2018-06-07T12:40:50.184Z,26.59
2018-06-07T12:41:50.124Z,26.49
2018-06-07T12:42:50.079Z,26.49
2018-06-07T12:43:50.031Z,26.52
2018-06-07T12:44:49.989Z,26.67
2018-06-07T12:45:49.939Z,26.61
2018-06-07T12:46:49.970Z,26.67
2018-06-07T12:47:49.847Z,26.52
2018-06-07T12:48:49.800Z,26.55
2018-06-07T12:49:49.755Z,26.55
2018-06-07T12:50:49.709Z,26.57
2018-06-07T12:51:49.662Z,26.65